sensor_id;sensor_type;location;lat;lon;timestamp;pressure;altitude;pressure_sealevel;temperature;humidity
39243;BME280;29823;47.404;8.566;2023-02-01T00:00:42;97334.56;;;3.85;100.00
39243;BME280;29823;47.404;8.566;2023-02-01T00:03:12;97342.81;;;3.74;100.00
39243;BME280;29823;47.404;8.566;2023-02-01T00:05:41;97340.03;;;3.60;100.00
39243;BME280;29823;47.404;8.566;2023-02-01T00:08:08;97335.75;;;3.67;100.00
39243;BME280;29823;47.404;8.566;2023-02-01T00:10:36;97322.66;;;3.81;100.00
39243;BME280;29823;47.404;8.566;2023-02-01T00:13:04;97327.47;;;3.78;100.00
39243;BME280;29823;47.404;8.566;2023-02-01T00:15:32;97314.72;;;3.73;100.00
39243;BME280;29823;47.404;8.566;2023-02-01T00:18:00;97321.72;;;3.58;100.00
39243;BME280;29823;47.404;8.566;2023-02-01T00:20:30;97308.31;;;3.60;100.00
39243;BME280;29823;47.404;8.566;2023-02-01T00:22:57;97315.47;;;3.43;100.00
39243;BME280;29823;47.404;8.566;2023-02-01T00:25:25;97325.22;;;3.35;100.00
39243;BME280;29823;47.404;8.566;2023-02-01T00:27:53;97328.22;;;3.24;100.00
39243;BME280;29823;47.404;8.566;2023-02-01T00:30:23;97312.16;;;3.09;100.00
39243;BME280;29823;47.404;8.566;2023-02-01T00:32:51;97325.91;;;2.97;100.00
39243;BME280;29823;47.404;8.566;2023-02-01T00:35:18;97327.03;;;3.18;100.00
39243;BME280;29823;47.404;8.566;2023-02-01T00:37:47;97319.44;;;3.07;100.00
39243;BME280;29823;47.404;8.566;2023-02-01T00:40:15;97321.78;;;2.94;100.00
39243;BME280;29823;47.404;8.566;2023-02-01T00:42:43;97313.16;;;2.76;100.00
39243;BME280;29823;47.404;8.566;2023-02-01T00:45:11;97307.22;;;2.82;100.00
39243;BME280;29823;47.404;8.566;2023-02-01T00:47:39;97307.56;;;2.79;100.00
39243;BME280;29823;47.404;8.566;2023-02-01T00:50:08;97300.78;;;3.01;100.00
39243;BME280;29823;47.404;8.566;2023-02-01T00:52:36;97300.97;;;2.91;100.00
39243;BME280;29823;47.404;8.566;2023-02-01T00:55:06;97301.31;;;2.88;100.00
39243;BME280;29823;47.404;8.566;2023-02-01T00:57:34;97302.13;;;2.97;100.00
39243;BME280;29823;47.404;8.566;2023-02-01T01:00:02;97294.53;;;2.94;100.00
39243;BME280;29823;47.404;8.566;2023-02-01T01:02:30;97294.69;;;2.92;100.00
39243;BME280;29823;47.404;8.566;2023-02-01T01:04:58;97293.69;;;2.93;100.00
39243;BME280;29823;47.404;8.566;2023-02-01T01:07:27;97289.72;;;2.81;100.00
39243;BME280;29823;47.404;8.566;2023-02-01T01:09:55;97281.28;;;2.62;100.00
39243;BME280;29823;47.404;8.566;2023-02-01T01:12:24;97286.56;;;2.46;100.00
39243;BME280;29823;47.404;8.566;2023-02-01T01:14:52;97294.28;;;2.31;100.00
39243;BME280;29823;47.404;8.566;2023-02-01T01:17:20;97290.31;;;2.27;100.00
39243;BME280;29823;47.404;8.566;2023-02-01T01:19:47;97286.56;;;2.38;100.00
39243;BME280;29823;47.404;8.566;2023-02-01T01:22:15;97283.72;;;2.39;100.00
39243;BME280;29823;47.404;8.566;2023-02-01T01:24:44;97286.66;;;2.28;100.00
39243;BME280;29823;47.404;8.566;2023-02-01T01:27:12;97287.97;;;2.16;100.00
39243;BME280;29823;47.404;8.566;2023-02-01T01:29:41;97290.59;;;2.16;100.00
39243;BME280;29823;47.404;8.566;2023-02-01T01:32:09;97286.91;;;2.01;100.00
39243;BME280;29823;47.404;8.566;2023-02-01T01:34:37;97295.16;;;1.98;100.00
39243;BME280;29823;47.404;8.566;2023-02-01T01:37:05;97280.00;;;1.92;100.00
39243;BME280;29823;47.404;8.566;2023-02-01T01:39:33;97276.34;;;1.93;100.00
39243;BME280;29823;47.404;8.566;2023-02-01T01:42:01;97281.84;;;2.00;100.00
39243;BME280;29823;47.404;8.566;2023-02-01T01:45:02;97265.94;;;1.84;100.00
39243;BME280;29823;47.404;8.566;2023-02-01T01:47:32;97275.16;;;1.80;100.00
39243;BME280;29823;47.404;8.566;2023-02-01T01:50:03;97278.22;;;1.67;100.00
39243;BME280;29823;47.404;8.566;2023-02-01T01:52:32;97271.81;;;1.70;100.00
39243;BME280;29823;47.404;8.566;2023-02-01T01:55:00;97265.78;;;1.85;100.00
39243;BME280;29823;47.404;8.566;2023-02-01T01:57:31;97245.50;;;1.78;100.00
39243;BME280;29823;47.404;8.566;2023-02-01T02:00:05;97268.53;;;1.68;100.00
39243;BME280;29823;47.404;8.566;2023-02-01T02:02:34;97246.25;;;1.62;100.00
39243;BME280;29823;47.404;8.566;2023-02-01T02:05:04;97274.56;;;1.60;100.00
39243;BME280;29823;47.404;8.566;2023-02-01T02:07:35;97273.09;;;1.66;100.00
39243;BME280;29823;47.404;8.566;2023-02-01T02:10:05;97265.97;;;1.50;100.00
39243;BME280;29823;47.404;8.566;2023-02-01T02:12:33;97273.63;;;1.36;100.00
39243;BME280;29823;47.404;8.566;2023-02-01T02:15:03;97272.22;;;1.49;100.00
39243;BME280;29823;47.404;8.566;2023-02-01T02:17:36;97282.75;;;1.49;100.00
39243;BME280;29823;47.404;8.566;2023-02-01T02:20:34;97265.72;;;1.36;100.00
39243;BME280;29823;47.404;8.566;2023-02-01T02:32:50;97279.97;;;1.51;100.00
39243;BME280;29823;47.404;8.566;2023-02-01T02:35:30;97281.09;;;1.48;100.00
39243;BME280;29823;47.404;8.566;2023-02-01T02:38:12;97277.56;;;1.65;100.00
39243;BME280;29823;47.404;8.566;2023-02-01T02:40:47;97281.91;;;1.49;100.00
39243;BME280;29823;47.404;8.566;2023-02-01T02:43:21;97272.50;;;1.38;100.00
39243;BME280;29823;47.404;8.566;2023-02-01T02:46:12;97273.16;;;1.40;100.00
39243;BME280;29823;47.404;8.566;2023-02-01T02:49:04;97272.38;;;1.56;100.00
39243;BME280;29823;47.404;8.566;2023-02-01T02:51:39;97271.25;;;1.58;100.00
39243;BME280;29823;47.404;8.566;2023-02-01T02:54:29;97262.47;;;1.83;100.00
39243;BME280;29823;47.404;8.566;2023-02-01T02:57:19;97273.28;;;2.06;100.00
39243;BME280;29823;47.404;8.566;2023-02-01T03:00:07;97274.81;;;1.83;100.00
39243;BME280;29823;47.404;8.566;2023-02-01T03:02:54;97267.56;;;1.77;100.00
39243;BME280;29823;47.404;8.566;2023-02-01T03:05:42;97274.00;;;1.82;100.00
39243;BME280;29823;47.404;8.566;2023-02-01T03:08:14;97266.38;;;1.71;100.00
39243;BME280;29823;47.404;8.566;2023-02-01T03:10:48;97269.38;;;1.76;100.00
39243;BME280;29823;47.404;8.566;2023-02-01T03:13:24;97260.47;;;1.77;100.00
39243;BME280;29823;47.404;8.566;2023-02-01T03:15:58;97257.84;;;1.77;100.00
39243;BME280;29823;47.404;8.566;2023-02-01T03:18:32;97234.81;;;1.87;100.00
39243;BME280;29823;47.404;8.566;2023-02-01T03:21:05;97256.69;;;1.80;100.00
39243;BME280;29823;47.404;8.566;2023-02-01T03:23:36;97256.53;;;1.81;100.00
39243;BME280;29823;47.404;8.566;2023-02-01T03:26:08;97263.47;;;1.82;100.00
39243;BME280;29823;47.404;8.566;2023-02-01T03:28:43;97265.38;;;1.64;100.00
39243;BME280;29823;47.404;8.566;2023-02-01T03:31:13;97273.47;;;1.37;100.00
39243;BME280;29823;47.404;8.566;2023-02-01T03:33:41;97277.50;;;1.49;100.00
39243;BME280;29823;47.404;8.566;2023-02-01T03:36:15;97272.59;;;1.62;100.00
39243;BME280;29823;47.404;8.566;2023-02-01T03:38:51;97285.13;;;1.60;100.00
39243;BME280;29823;47.404;8.566;2023-02-01T03:41:27;97274.56;;;1.60;100.00
39243;BME280;29823;47.404;8.566;2023-02-01T03:43:58;97274.84;;;1.49;100.00
39243;BME280;29823;47.404;8.566;2023-02-01T03:46:33;97284.91;;;1.54;100.00
39243;BME280;29823;47.404;8.566;2023-02-01T03:49:05;97272.50;;;1.46;100.00
39243;BME280;29823;47.404;8.566;2023-02-01T03:51:35;97270.88;;;1.45;100.00
39243;BME280;29823;47.404;8.566;2023-02-01T03:54:06;97264.97;;;1.51;100.00
39243;BME280;29823;47.404;8.566;2023-02-01T03:56:38;97261.69;;;1.57;100.00
39243;BME280;29823;47.404;8.566;2023-02-01T03:59:08;97262.19;;;1.53;100.00
39243;BME280;29823;47.404;8.566;2023-02-01T04:01:36;97253.97;;;1.30;100.00
39243;BME280;29823;47.404;8.566;2023-02-01T04:04:03;97248.88;;;1.29;100.00
39243;BME280;29823;47.404;8.566;2023-02-01T04:06:31;97233.69;;;1.23;100.00
39243;BME280;29823;47.404;8.566;2023-02-01T04:08:59;97251.59;;;1.11;100.00
39243;BME280;29823;47.404;8.566;2023-02-01T04:11:28;97256.63;;;1.05;100.00
39243;BME280;29823;47.404;8.566;2023-02-01T04:13:56;97257.50;;;0.88;100.00
39243;BME280;29823;47.404;8.566;2023-02-01T04:16:24;97278.53;;;1.05;100.00
39243;BME280;29823;47.404;8.566;2023-02-01T04:18:52;97269.53;;;1.16;100.00
39243;BME280;29823;47.404;8.566;2023-02-01T04:21:19;97286.59;;;1.29;100.00
39243;BME280;29823;47.404;8.566;2023-02-01T04:23:47;97283.47;;;1.34;100.00
39243;BME280;29823;47.404;8.566;2023-02-01T04:26:15;97288.53;;;1.53;100.00
39243;BME280;29823;47.404;8.566;2023-02-01T04:28:44;97282.13;;;1.55;100.00
39243;BME280;29823;47.404;8.566;2023-02-01T04:31:14;97294.53;;;1.63;100.00
39243;BME280;29823;47.404;8.566;2023-02-01T04:33:42;97296.38;;;1.70;100.00
39243;BME280;29823;47.404;8.566;2023-02-01T04:36:10;97290.47;;;1.76;100.00
39243;BME280;29823;47.404;8.566;2023-02-01T04:38:38;97282.34;;;2.03;100.00
39243;BME280;29823;47.404;8.566;2023-02-01T04:41:06;97293.59;;;2.13;100.00
39243;BME280;29823;47.404;8.566;2023-02-01T04:43:34;97305.78;;;2.14;100.00
39243;BME280;29823;47.404;8.566;2023-02-01T04:46:03;97295.91;;;2.32;100.00
39243;BME280;29823;47.404;8.566;2023-02-01T04:48:31;97312.09;;;2.37;100.00
39243;BME280;29823;47.404;8.566;2023-02-01T04:50:59;97308.31;;;2.40;100.00
39243;BME280;29823;47.404;8.566;2023-02-01T04:53:27;97316.06;;;2.49;100.00
39243;BME280;29823;47.404;8.566;2023-02-01T04:55:56;97324.53;;;2.61;100.00
39243;BME280;29823;47.404;8.566;2023-02-01T04:58:23;97329.00;;;2.76;100.00
39243;BME280;29823;47.404;8.566;2023-02-01T05:00:51;97338.09;;;2.82;100.00
39243;BME280;29823;47.404;8.566;2023-02-01T05:03:20;97338.59;;;2.85;100.00
39243;BME280;29823;47.404;8.566;2023-02-01T05:05:48;97347.16;;;2.87;100.00
39243;BME280;29823;47.404;8.566;2023-02-01T05:08:16;97341.22;;;2.93;100.00
39243;BME280;29823;47.404;8.566;2023-02-01T05:10:45;97337.94;;;2.91;100.00
39243;BME280;29823;47.404;8.566;2023-02-01T05:13:12;97336.28;;;2.90;100.00
39243;BME280;29823;47.404;8.566;2023-02-01T05:15:58;97330.34;;;2.88;100.00
39243;BME280;29823;47.404;8.566;2023-02-01T05:18:27;97333.81;;;2.81;100.00
39243;BME280;29823;47.404;8.566;2023-02-01T05:20:55;97331.97;;;2.73;100.00
39243;BME280;29823;47.404;8.566;2023-02-01T05:23:23;97334.47;;;2.83;100.00
39243;BME280;29823;47.404;8.566;2023-02-01T05:25:51;97314.66;;;2.71;100.00
39243;BME280;29823;47.404;8.566;2023-02-01T05:28:18;97313.50;;;2.73;100.00
39243;BME280;29823;47.404;8.566;2023-02-01T05:30:46;97306.72;;;2.79;100.00
39243;BME280;29823;47.404;8.566;2023-02-01T05:33:14;97307.06;;;2.76;100.00
39243;BME280;29823;47.404;8.566;2023-02-01T05:35:43;97301.59;;;2.77;100.00
39243;BME280;29823;47.404;8.566;2023-02-01T05:38:11;97305.88;;;2.70;100.00
39243;BME280;29823;47.404;8.566;2023-02-01T05:40:39;97304.25;;;2.77;100.00
39243;BME280;29823;47.404;8.566;2023-02-01T05:43:07;97301.28;;;2.80;100.00
39243;BME280;29823;47.404;8.566;2023-02-01T05:45:35;97300.63;;;2.78;100.00
39243;BME280;29823;47.404;8.566;2023-02-01T05:48:03;97307.88;;;2.92;100.00
39243;BME280;29823;47.404;8.566;2023-02-01T05:50:31;97305.91;;;2.94;100.00
39243;BME280;29823;47.404;8.566;2023-02-01T05:53:00;97306.06;;;3.01;100.00
39243;BME280;29823;47.404;8.566;2023-02-01T05:55:28;97316.97;;;2.98;100.00
39243;BME280;29823;47.404;8.566;2023-02-01T05:57:56;97328.88;;;3.02;100.00
39243;BME280;29823;47.404;8.566;2023-02-01T06:00:24;97313.84;;;3.02;100.00
39243;BME280;29823;47.404;8.566;2023-02-01T06:02:53;97325.06;;;3.12;100.00
39243;BME280;29823;47.404;8.566;2023-02-01T06:05:20;97337.59;;;3.18;100.00
39243;BME280;29823;47.404;8.566;2023-02-01T06:07:48;97342.06;;;3.26;100.00
39243;BME280;29823;47.404;8.566;2023-02-01T06:10:18;97337.13;;;3.31;100.00
39243;BME280;29823;47.404;8.566;2023-02-01T06:12:47;97324.41;;;3.26;100.00
39243;BME280;29823;47.404;8.566;2023-02-01T06:15:15;97319.44;;;3.31;100.00
39243;BME280;29823;47.404;8.566;2023-02-01T06:17:44;97311.81;;;3.36;100.00
39243;BME280;29823;47.404;8.566;2023-02-01T06:20:14;97318.59;;;3.23;100.00
39243;BME280;29823;47.404;8.566;2023-02-01T06:22:43;97326.06;;;3.27;100.00
39243;BME280;29823;47.404;8.566;2023-02-01T06:25:11;97331.97;;;3.29;100.00
39243;BME280;29823;47.404;8.566;2023-02-01T06:27:40;97329.50;;;3.28;100.00
39243;BME280;29823;47.404;8.566;2023-02-01T06:30:09;97329.00;;;3.24;100.00
39243;BME280;29823;47.404;8.566;2023-02-01T06:32:40;97317.13;;;3.28;100.00
39243;BME280;29823;47.404;8.566;2023-02-01T06:35:09;97316.81;;;3.23;100.00
39243;BME280;29823;47.404;8.566;2023-02-01T06:37:42;97331.66;;;3.32;100.00
39243;BME280;29823;47.404;8.566;2023-02-01T06:40:11;97336.75;;;3.34;100.00
39243;BME280;29823;47.404;8.566;2023-02-01T06:42:39;97340.59;;;3.31;100.00
39243;BME280;29823;47.404;8.566;2023-02-01T06:45:09;97354.44;;;3.41;100.00
39243;BME280;29823;47.404;8.566;2023-02-01T06:47:37;97337.59;;;3.34;100.00
39243;BME280;29823;47.404;8.566;2023-02-01T06:50:05;97342.91;;;3.42;100.00
39243;BME280;29823;47.404;8.566;2023-02-01T06:52:33;97329.34;;;3.29;100.00
39243;BME280;29823;47.404;8.566;2023-02-01T06:55:03;97339.19;;;3.67;100.00
39243;BME280;29823;47.404;8.566;2023-02-01T06:57:31;97343.88;;;3.33;100.00
39243;BME280;29823;47.404;8.566;2023-02-01T07:00:01;97352.44;;;3.51;100.00
39243;BME280;29823;47.404;8.566;2023-02-01T07:02:30;97358.88;;;3.49;100.00
39243;BME280;29823;47.404;8.566;2023-02-01T07:04:58;97375.56;;;3.65;100.00
39243;BME280;29823;47.404;8.566;2023-02-01T07:07:26;97374.53;;;3.74;100.00
39243;BME280;29823;47.404;8.566;2023-02-01T07:09:54;97382.31;;;3.84;100.00
39243;BME280;29823;47.404;8.566;2023-02-01T07:12:22;97392.72;;;3.93;100.00
39243;BME280;29823;47.404;8.566;2023-02-01T07:14:49;97399.31;;;3.89;100.00
39243;BME280;29823;47.404;8.566;2023-02-01T07:17:17;97413.56;;;3.88;100.00
39243;BME280;29823;47.404;8.566;2023-02-01T07:19:46;97420.34;;;3.83;100.00
39243;BME280;29823;47.404;8.566;2023-02-01T07:22:16;97428.94;;;3.85;100.00
39243;BME280;29823;47.404;8.566;2023-02-01T07:24:44;97431.75;;;3.75;100.00
39243;BME280;29823;47.404;8.566;2023-02-01T07:27:12;97437.38;;;3.64;100.00
39243;BME280;29823;47.404;8.566;2023-02-01T07:29:40;97431.75;;;3.67;100.00
39243;BME280;29823;47.404;8.566;2023-02-01T07:32:08;97424.84;;;3.58;100.00
39243;BME280;29823;47.404;8.566;2023-02-01T07:34:36;97429.94;;;3.52;100.00
39243;BME280;29823;47.404;8.566;2023-02-01T07:37:05;97441.00;;;3.47;100.00
39243;BME280;29823;47.404;8.566;2023-02-01T07:39:33;97442.84;;;3.47;100.00
39243;BME280;29823;47.404;8.566;2023-02-01T07:42:01;97445.66;;;3.53;100.00
39243;BME280;29823;47.404;8.566;2023-02-01T07:44:28;97439.53;;;3.45;100.00
39243;BME280;29823;47.404;8.566;2023-02-01T07:46:56;97427.63;;;3.41;100.00
39243;BME280;29823;47.404;8.566;2023-02-01T07:49:24;97435.72;;;3.63;100.00
39243;BME280;29823;47.404;8.566;2023-02-01T07:51:52;97444.66;;;3.62;100.00
39243;BME280;29823;47.404;8.566;2023-02-01T07:54:21;97426.47;;;3.51;100.00
39243;BME280;29823;47.404;8.566;2023-02-01T07:56:49;97422.19;;;3.58;100.00
39243;BME280;29823;47.404;8.566;2023-02-01T07:59:17;97423.81;;;3.67;100.00
39243;BME280;29823;47.404;8.566;2023-02-01T08:01:44;97428.47;;;3.65;100.00
39243;BME280;29823;47.404;8.566;2023-02-01T08:04:12;97429.94;;;3.60;100.00
39243;BME280;29823;47.404;8.566;2023-02-01T08:06:41;97421.84;;;3.69;100.00
39243;BME280;29823;47.404;8.566;2023-02-01T08:09:09;97418.38;;;3.53;100.00
39243;BME280;29823;47.404;8.566;2023-02-01T08:11:38;97428.47;;;3.65;100.00
39243;BME280;29823;47.404;8.566;2023-02-01T08:14:06;97433.72;;;3.73;100.00
39243;BME280;29823;47.404;8.566;2023-02-01T08:16:34;97432.91;;;3.81;100.00
39243;BME280;29823;47.404;8.566;2023-02-01T08:19:04;97423.47;;;3.94;100.00
39243;BME280;29823;47.404;8.566;2023-02-01T08:21:32;97424.13;;;3.88;100.00
39243;BME280;29823;47.404;8.566;2023-02-01T08:24:04;97412.88;;;3.94;100.00
39243;BME280;29823;47.404;8.566;2023-02-01T08:26:33;97405.25;;;3.99;100.00
39243;BME280;29823;47.404;8.566;2023-02-01T08:29:04;97412.06;;;3.94;100.00
39243;BME280;29823;47.404;8.566;2023-02-01T08:31:32;97401.63;;;4.00;100.00
39243;BME280;29823;47.404;8.566;2023-02-01T08:34:01;97396.28;;;4.16;100.00
39243;BME280;29823;47.404;8.566;2023-02-01T08:36:31;97421.09;;;4.15;100.00
39243;BME280;29823;47.404;8.566;2023-02-01T08:38:59;97409.88;;;4.13;100.00
39243;BME280;29823;47.404;8.566;2023-02-01T08:41:29;97412.63;;;4.20;100.00
39243;BME280;29823;47.404;8.566;2023-02-01T08:43:57;97416.91;;;4.29;100.00
39243;BME280;29823;47.404;8.566;2023-02-01T08:46:27;97414.59;;;4.34;100.00
39243;BME280;29823;47.404;8.566;2023-02-01T08:48:55;97425.19;;;4.34;100.00
39243;BME280;29823;47.404;8.566;2023-02-01T08:51:23;97426.88;;;4.27;100.00
39243;BME280;29823;47.404;8.566;2023-02-01T08:53:51;97423.53;;;4.33;100.00
39243;BME280;29823;47.404;8.566;2023-02-01T08:56:20;97405.84;;;4.25;100.00
39243;BME280;29823;47.404;8.566;2023-02-01T08:58:47;97406.50;;;4.35;100.00
39243;BME280;29823;47.404;8.566;2023-02-01T09:01:16;97397.22;;;4.39;100.00
39243;BME280;29823;47.404;8.566;2023-02-01T09:03:45;97401.78;;;4.53;100.00
39243;BME280;29823;47.404;8.566;2023-02-01T09:06:15;97393.50;;;4.56;100.00
39243;BME280;29823;47.404;8.566;2023-02-01T09:08:43;97405.38;;;4.60;100.00
39243;BME280;29823;47.404;8.566;2023-02-01T09:11:13;97406.34;;;4.67;100.00
39243;BME280;29823;47.404;8.566;2023-02-01T09:13:41;97397.72;;;4.73;100.00
39243;BME280;29823;47.404;8.566;2023-02-01T09:16:10;97404.25;;;4.85;100.00
39243;BME280;29823;47.404;8.566;2023-02-01T09:18:38;97393.31;;;4.88;100.00
39243;BME280;29823;47.404;8.566;2023-02-01T09:21:23;97391.56;;;5.03;100.00
39243;BME280;29823;47.404;8.566;2023-02-01T09:23:51;97395.56;;;4.99;100.00
39243;BME280;29823;47.404;8.566;2023-02-01T09:26:19;97401.13;;;5.12;100.00
39243;BME280;29823;47.404;8.566;2023-02-01T09:28:56;97403.94;;;5.33;100.00
39243;BME280;29823;47.404;8.566;2023-02-01T09:31:25;97414.91;;;5.30;100.00
39243;BME280;29823;47.404;8.566;2023-02-01T09:33:53;97422.16;;;5.36;100.00
39243;BME280;29823;47.404;8.566;2023-02-01T09:36:22;97427.69;;;5.27;100.00
39243;BME280;29823;47.404;8.566;2023-02-01T09:38:50;97411.44;;;5.30;100.00
39243;BME280;29823;47.404;8.566;2023-02-01T09:41:29;97424.03;;;5.50;100.00
39243;BME280;29823;47.404;8.566;2023-02-01T09:44:04;97416.25;;;5.71;100.00
39243;BME280;29823;47.404;8.566;2023-02-01T09:46:35;97420.50;;;5.80;100.00
39243;BME280;29823;47.404;8.566;2023-02-01T09:49:09;97422.91;;;5.90;100.00
39243;BME280;29823;47.404;8.566;2023-02-01T09:51:44;97428.41;;;6.03;100.00
39243;BME280;29823;47.404;8.566;2023-02-01T09:54:15;97428.06;;;6.06;100.00
39243;BME280;29823;47.404;8.566;2023-02-01T09:56:48;97431.97;;;5.95;100.00
39243;BME280;29823;47.404;8.566;2023-02-01T09:59:26;97434.16;;;5.92;100.00
39243;BME280;29823;47.404;8.566;2023-02-01T10:01:58;97419.41;;;5.89;100.00
39243;BME280;29823;47.404;8.566;2023-02-01T10:04:26;97415.28;;;5.87;100.00
39243;BME280;29823;47.404;8.566;2023-02-01T10:07:02;97419.38;;;6.12;100.00
39243;BME280;29823;47.404;8.566;2023-02-01T10:09:44;97421.56;;;6.08;100.00
39243;BME280;29823;47.404;8.566;2023-02-01T10:15:35;97413.47;;;5.87;100.00
39243;BME280;29823;47.404;8.566;2023-02-01T10:18:23;97407.09;;;6.11;100.00
39243;BME280;29823;47.404;8.566;2023-02-01T10:21:00;97406.19;;;6.18;100.00
39243;BME280;29823;47.404;8.566;2023-02-01T10:23:50;97406.03;;;6.20;100.00
39243;BME280;29823;47.404;8.566;2023-02-01T10:26:26;97403.16;;;6.21;100.00
39243;BME280;29823;47.404;8.566;2023-02-01T10:28:58;97399.78;;;6.56;100.00
39243;BME280;29823;47.404;8.566;2023-02-01T10:31:30;97396.03;;;7.01;100.00
39243;BME280;29823;47.404;8.566;2023-02-01T10:34:00;97368.69;;;7.07;100.00
39243;BME280;29823;47.404;8.566;2023-02-01T10:36:32;97371.41;;;7.55;100.00
39243;BME280;29823;47.404;8.566;2023-02-01T10:39:04;97370.06;;;7.93;99.93
39243;BME280;29823;47.404;8.566;2023-02-01T10:41:35;97368.19;;;7.60;98.57
39243;BME280;29823;47.404;8.566;2023-02-01T10:44:07;97375.59;;;8.19;96.41
39243;BME280;29823;47.404;8.566;2023-02-01T10:46:38;97382.22;;;8.23;96.51
39243;BME280;29823;47.404;8.566;2023-02-01T10:49:11;97400.88;;;8.02;100.00
39243;BME280;29823;47.404;8.566;2023-02-01T10:51:47;97385.31;;;7.78;98.19
39243;BME280;29823;47.404;8.566;2023-02-01T10:54:18;97371.47;;;7.89;98.91
39243;BME280;29823;47.404;8.566;2023-02-01T10:56:48;97356.81;;;7.72;99.25
39243;BME280;29823;47.404;8.566;2023-02-01T10:59:17;97365.69;;;7.79;95.93
39243;BME280;29823;47.404;8.566;2023-02-01T11:01:46;97380.06;;;7.85;97.58
39243;BME280;29823;47.404;8.566;2023-02-01T11:04:15;97370.03;;;7.59;99.35
39243;BME280;29823;47.404;8.566;2023-02-01T11:06:46;97367.88;;;7.48;100.00
39243;BME280;29823;47.404;8.566;2023-02-01T11:09:21;97361.78;;;7.33;100.00
39243;BME280;29823;47.404;8.566;2023-02-01T11:11:56;97363.69;;;7.18;100.00
39243;BME280;29823;47.404;8.566;2023-02-01T11:14:34;97356.88;;;7.30;100.00
39243;BME280;29823;47.404;8.566;2023-02-01T11:17:17;97349.13;;;7.35;100.00
39243;BME280;29823;47.404;8.566;2023-02-01T11:19:46;97333.44;;;7.68;100.00
39243;BME280;29823;47.404;8.566;2023-02-01T11:22:14;97347.44;;;7.07;100.00
39243;BME280;29823;47.404;8.566;2023-02-01T11:24:46;97348.16;;;7.22;100.00
39243;BME280;29823;47.404;8.566;2023-02-01T11:27:16;97341.34;;;6.92;100.00
39243;BME280;29823;47.404;8.566;2023-02-01T11:30:00;97330.63;;;6.85;100.00
39243;BME280;29823;47.404;8.566;2023-02-01T11:32:28;97330.53;;;7.14;100.00
39243;BME280;29823;47.404;8.566;2023-02-01T11:35:01;97331.50;;;7.55;100.00
39243;BME280;29823;47.404;8.566;2023-02-01T11:37:32;97322.38;;;7.64;98.77
39243;BME280;29823;47.404;8.566;2023-02-01T11:40:08;97324.44;;;8.03;94.23
39243;BME280;29823;47.404;8.566;2023-02-01T11:42:54;97348.38;;;7.69;95.36
39243;BME280;29823;47.404;8.566;2023-02-01T11:45:28;97342.50;;;8.28;93.26
39243;BME280;29823;47.404;8.566;2023-02-01T11:47:57;97320.16;;;8.29;93.24
39243;BME280;29823;47.404;8.566;2023-02-01T11:50:32;97331.84;;;7.73;94.24
39243;BME280;29823;47.404;8.566;2023-02-01T11:53:15;97321.03;;;8.09;90.84
39243;BME280;29823;47.404;8.566;2023-02-01T11:56:05;97327.00;;;7.83;94.29
39243;BME280;29823;47.404;8.566;2023-02-01T11:59:01;97321.38;;;7.44;96.09
39243;BME280;29823;47.404;8.566;2023-02-01T12:01:47;97307.38;;;7.84;94.25
39243;BME280;29823;47.404;8.566;2023-02-01T12:04:53;97305.66;;;8.38;92.44
39243;BME280;29823;47.404;8.566;2023-02-01T12:10:26;97303.28;;;8.63;87.55
39243;BME280;29823;47.404;8.566;2023-02-01T12:13:10;97308.28;;;8.92;86.26
39243;BME280;29823;47.404;8.566;2023-02-01T12:15:49;97304.44;;;8.47;89.46
39243;BME280;29823;47.404;8.566;2023-02-01T12:18:42;97267.56;;;8.57;88.34
39243;BME280;29823;47.404;8.566;2023-02-01T12:21:28;97283.84;;;8.22;90.71
39243;BME280;29823;47.404;8.566;2023-02-01T12:24:16;97261.84;;;8.13;89.29
39243;BME280;29823;47.404;8.566;2023-02-01T12:26:53;97267.31;;;8.46;89.18
39243;BME280;29823;47.404;8.566;2023-02-01T12:29:35;97270.69;;;8.67;86.46
39243;BME280;29823;47.404;8.566;2023-02-01T12:32:12;97255.09;;;8.58;87.63
39243;BME280;29823;47.404;8.566;2023-02-01T12:34:57;97259.34;;;8.52;87.25
39243;BME280;29823;47.404;8.566;2023-02-01T12:37:42;97256.66;;;8.05;89.96
39243;BME280;29823;47.404;8.566;2023-02-01T12:40:36;97262.03;;;8.12;88.58
39243;BME280;29823;47.404;8.566;2023-02-01T12:43:11;97254.31;;;7.89;91.18
39243;BME280;29823;47.404;8.566;2023-02-01T12:45:46;97266.31;;;8.06;91.82
39243;BME280;29823;47.404;8.566;2023-02-01T12:48:25;97243.00;;;7.74;91.23
39243;BME280;29823;47.404;8.566;2023-02-01T12:50:56;97258.50;;;7.64;89.51
39243;BME280;29823;47.404;8.566;2023-02-01T12:53:30;97250.56;;;7.43;87.31
39243;BME280;29823;47.404;8.566;2023-02-01T12:56:04;97258.06;;;7.33;88.67
39243;BME280;29823;47.404;8.566;2023-02-01T12:58:39;97254.47;;;7.20;91.54
39243;BME280;29823;47.404;8.566;2023-02-01T13:01:14;97249.97;;;7.20;91.32
39243;BME280;29823;47.404;8.566;2023-02-01T13:03:52;97247.78;;;7.03;93.37
39243;BME280;29823;47.404;8.566;2023-02-01T13:06:24;97244.88;;;6.98;91.96
39243;BME280;29823;47.404;8.566;2023-02-01T13:09:12;97248.72;;;6.95;92.88
39243;BME280;29823;47.404;8.566;2023-02-01T13:11:44;97241.75;;;7.15;92.16
39243;BME280;29823;47.404;8.566;2023-02-01T13:14:22;97230.19;;;7.29;89.02
39243;BME280;29823;47.404;8.566;2023-02-01T13:16:59;97237.91;;;7.24;90.72
39243;BME280;29823;47.404;8.566;2023-02-01T13:19:30;97232.78;;;7.44;88.38
39243;BME280;29823;47.404;8.566;2023-02-01T13:22:05;97228.16;;;7.31;88.64
39243;BME280;29823;47.404;8.566;2023-02-01T13:24:41;97209.25;;;7.20;88.47
39243;BME280;29823;47.404;8.566;2023-02-01T13:27:12;97209.56;;;7.31;89.06
39243;BME280;29823;47.404;8.566;2023-02-01T13:29:55;97222.56;;;7.47;88.12
39243;BME280;29823;47.404;8.566;2023-02-01T13:42:17;97201.72;;;7.91;86.27
39243;BME280;29823;47.404;8.566;2023-02-01T13:44:48;97207.38;;;7.75;85.50
39243;BME280;29823;47.404;8.566;2023-02-01T13:47:26;97209.19;;;7.75;85.41
39243;BME280;29823;47.404;8.566;2023-02-01T13:49:59;97201.66;;;7.44;88.03
39243;BME280;29823;47.404;8.566;2023-02-01T13:52:35;97222.69;;;7.39;88.20